OUA weather

Ouagadougou Airport
Ouagadougou, Kadiogo, Burkina Faso

Public forecast

Using degrees Celsius for public forecast. Weather courtesy of forecast.io.

Current aviation weather report (METAR) for Ouagadougou Airport

Retrieved 2020/02/23 12:00 UTC (15 minutes ago):

DFFD 231200Z 09011KT 050V120 6000 NSC 35/M01 Q1014 NOSIG

Aviation forecast (TAF) for Ouagadougou Airport

Retrieved 2020/02/23 12:21 UTC (0 seconds ago):

TAF TAF DFFD 231100Z 2312/2418 09010G22KT 6000 NSC TEMPO 2316/2321 4000 DU TEMPO 2406/2410 2500 DU